Time;durP1;ratioP1;P1;durP2;ratioP2;P2;SDS_P1;SDS_P2;PMS_P1;PMS_P2;Temp;Humidity;BMP_temperature;BMP_pressure;BME280_temperature;BME280_humidity;BME280_pressure;Samples;Min_cycle;Max_cycle;Signal;HPM_P1;HPM_P2
2023/09/12 00:01:49;;;;;;;36.63;15.82;;;;;;;11.81;93.18;99827.00;5070423;28;20051;-47
2023/09/12 00:04:16;;;;;;;35.10;15.57;;;;;;;11.82;93.41;99833.91;5071980;28;20039;-45
2023/09/12 00:06:43;;;;;;;31.50;15.43;;;;;;;11.80;93.35;99827.88;5071134;28;20078;-50
2023/09/12 00:09:09;;;;;;;31.48;14.93;;;;;;;11.78;93.69;99829.69;5068358;28;20063;-46
2023/09/12 00:11:35;;;;;;;26.30;14.05;;;;;;;11.60;93.95;99802.56;5077032;28;20074;-47
2023/09/12 00:14:01;;;;;;;28.80;14.38;;;;;;;11.75;94.03;99827.22;5012272;28;20132;-46
2023/09/12 00:16:27;;;;;;;31.00;15.45;;;;;;;11.57;93.88;99802.63;5074521;28;20154;-47
2023/09/12 00:18:53;;;;;;;29.85;16.63;;;;;;;11.71;93.51;99836.00;5075319;28;20083;-47
2023/09/12 00:21:19;;;;;;;33.42;15.20;;;;;;;11.58;93.65;99814.75;5073281;28;20051;-46
2023/09/12 00:23:46;;;;;;;31.65;15.07;;;;;;;11.71;93.73;99844.69;5071605;28;20048;-45
2023/09/12 00:26:11;;;;;;;29.35;14.57;;;;;;;11.70;93.52;99842.13;5073130;28;20056;-45
2023/09/12 00:28:38;;;;;;;29.45;14.40;;;;;;;11.69;93.85;99846.47;5059554;28;20578;-46
2023/09/12 00:31:04;;;;;;;32.33;15.38;;;;;;;11.67;93.64;99850.06;5069963;28;20500;-46
2023/09/12 00:33:30;;;;;;;36.95;15.82;;;;;;;11.65;94.42;99851.84;5072593;28;20044;-48
2023/09/12 00:35:57;;;;;;;33.17;15.23;;;;;;;11.63;94.50;99853.66;5071394;28;20052;-49
2023/09/12 00:38:23;;;;;;;31.75;15.18;;;;;;;11.61;94.04;99853.72;5071010;28;20040;-48
2023/09/12 00:40:49;;;;;;;29.10;14.77;;;;;;;11.40;94.59;99823.25;5076971;28;20044;-48
2023/09/12 00:43:16;;;;;;;38.55;15.50;;;;;;;11.56;94.22;99858.25;5075579;28;20044;-46
2023/09/12 00:45:42;;;;;;;30.13;14.50;;;;;;;11.50;94.48;99855.88;5047542;28;20590;-48
2023/09/12 00:48:09;;;;;;;28.35;16.52;;;;;;;11.55;94.88;99855.69;5069033;28;20036;-48
2023/09/12 00:50:36;;;;;;;31.00;14.75;;;;;;;11.52;94.65;99856.63;5053343;28;20054;-45
2023/09/12 00:53:03;;;;;;;28.25;15.18;;;;;;;11.51;94.76;99854.97;5063466;28;20032;-48
2023/09/12 00:55:32;;;;;;;29.77;15.05;;;;;;;11.50;95.01;99857.63;5075958;28;20413;-48
2023/09/12 00:57:58;;;;;;;29.75;15.13;;;;;;;11.51;95.21;99859.31;5068645;28;20592;-48
2023/09/12 01:00:24;;;;;;;29.67;14.80;;;;;;;11.53;95.19;99873.97;5021167;28;20078;-47
2023/09/12 01:02:52;;;;;;;32.17;15.65;;;;;;;11.39;94.78;99839.75;5063392;28;20040;-47
2023/09/12 01:05:19;;;;;;;31.17;14.90;;;;;;;11.27;94.47;99828.03;5072863;28;20056;-48
2023/09/12 01:07:46;;;;;;;32.75;15.18;;;;;;;11.40;94.76;99854.50;5072608;28;20431;-48
2023/09/12 01:10:12;;;;;;;33.50;15.18;;;;;;;11.58;94.61;99876.41;5073379;28;20046;-46
2023/09/12 01:12:38;;;;;;;30.52;15.50;;;;;;;11.57;94.81;99875.56;5051178;28;20044;-47
2023/09/12 01:15:08;;;;;;;28.95;15.18;;;;;;;11.57;94.49;99870.34;5055876;28;20538;-48
2023/09/12 01:17:34;;;;;;;32.65;15.02;;;;;;;11.54;94.43;99878.28;5053047;28;20047;-45
2023/09/12 01:20:03;;;;;;;29.13;14.30;;;;;;;11.53;94.68;99871.38;5067347;28;20032;-45
2023/09/12 01:22:37;;;;;;;30.65;14.75;;;;;;;11.53;94.77;99873.13;5055892;28;20044;-45
2023/09/12 01:25:58;;;;;;;36.03;15.90;;;;;;;11.50;94.54;99868.88;5057235;28;20044;-49
2023/09/12 01:28:27;;;;;;;33.92;16.45;;;;;;;11.48;93.92;99862.88;5030786;28;20041;-49
2023/09/12 01:30:54;;;;;;;31.95;16.48;;;;;;;11.30;93.89;99840.09;5053731;28;20091;-44
2023/09/12 01:33:20;;;;;;;37.25;16.92;;;;;;;11.44;94.03;99866.50;5055413;28;20541;-51
2023/09/12 01:35:46;;;;;;;32.08;15.93;;;;;;;11.43;94.15;99878.66;5053796;28;20044;-48
2023/09/12 01:38:13;;;;;;;35.85;16.45;;;;;;;11.41;93.83;99872.63;5058360;28;20071;-45
2023/09/12 01:40:50;;;;;;;35.42;17.23;;;;;;;11.39;94.31;99884.88;5069754;28;20058;-46
2023/09/12 01:43:17;;;;;;;35.45;16.42;;;;;;;11.39;94.42;99884.88;5071887;28;20821;-47
2023/09/12 01:45:45;;;;;;;32.03;16.17;;;;;;;11.37;94.05;99886.66;5074848;28;20109;-49
2023/09/12 01:48:11;;;;;;;36.53;16.13;;;;;;;11.35;94.34;99893.69;5038991;28;20033;-47
2023/09/12 01:50:37;;;;;;;39.15;16.67;;;;;;;11.14;93.87;99855.38;5057076;28;20047;-47
2023/09/12 01:53:04;;;;;;;34.13;16.75;;;;;;;11.28;93.87;99879.19;5057836;28;20448;-48
2023/09/12 01:55:30;;;;;;;32.15;16.42;;;;;;;11.28;93.84;99884.38;5054990;28;20123;-45
2023/09/12 01:57:57;;;;;;;30.25;16.08;;;;;;;11.28;94.10;99889.59;5054850;28;20094;-47
2023/09/12 02:00:23;;;;;;;37.38;16.60;;;;;;;11.26;94.03;99888.78;5075127;28;20039;-46
2023/09/12 02:02:50;;;;;;;38.92;16.35;;;;;;;11.27;94.31;99894.84;5073193;28;20085;-45
2023/09/12 02:05:18;;;;;;;35.70;15.38;;;;;;;11.25;94.18;99896.66;5072154;28;20071;-46
2023/09/12 02:07:45;;;;;;;33.75;16.23;;;;;;;11.23;94.41;99894.09;5066087;28;20044;-49
2023/09/12 02:10:11;;;;;;;34.20;15.88;;;;;;;11.23;94.57;99893.25;5070561;28;20040;-50
2023/09/12 02:12:38;;;;;;;29.77;15.77;;;;;;;11.21;94.54;99892.44;5053319;28;20373;-47
2023/09/12 02:15:08;;;;;;;33.95;15.60;;;;;;;11.18;94.10;99889.94;5071175;28;20040;-46
2023/09/12 02:17:35;;;;;;;34.67;15.93;;;;;;;10.96;94.18;99861.19;5070518;28;20051;-48
2023/09/12 02:20:21;;;;;;;30.30;15.30;;;;;;;11.07;94.83;99882.50;5070379;28;20051;-48
2023/09/12 02:22:46;;;;;;;31.52;15.75;;;;;;;11.10;94.50;99894.53;5069693;28;20037;-48
2023/09/12 02:25:13;;;;;;;33.17;16.23;;;;;;;11.08;94.77;99902.44;5073124;28;20078;-49
2023/09/12 02:27:39;;;;;;;35.55;15.85;;;;;;;11.05;94.73;99903.34;5074602;28;20710;-49
2023/09/12 02:30:06;;;;;;;32.53;15.73;;;;;;;11.04;94.50;99904.25;5066621;28;20504;-46
2023/09/12 02:32:35;;;;;;;35.38;16.58;;;;;;;10.87;95.22;99877.09;5079885;28;20086;-48
2023/09/12 02:35:02;;;;;;;32.75;15.70;;;;;;;10.88;95.06;99878.81;5079306;28;20040;-47
2023/09/12 02:37:30;;;;;;;35.78;16.65;;;;;;;11.01;95.52;99908.72;5058745;28;20040;-47
2023/09/12 02:39:56;;;;;;;36.15;16.02;;;;;;;10.79;95.52;99876.47;5073897;28;20051;-47
2023/09/12 02:42:22;;;;;;;35.75;15.70;;;;;;;10.98;95.81;99914.88;5055829;28;20032;-50
2023/09/12 02:44:48;;;;;;;33.92;16.40;;;;;;;10.99;95.17;99915.75;5075014;28;20044;-47
2023/09/12 02:47:14;;;;;;;34.50;15.68;;;;;;;10.98;94.88;99917.47;5061222;28;20043;-45
2023/09/12 02:49:40;;;;;;;36.58;15.73;;;;;;;10.97;95.65;99918.38;5070973;28;20139;-48
2023/09/12 02:52:06;;;;;;;37.33;16.38;;;;;;;10.86;95.76;99894.47;5060427;28;20039;-48
2023/09/12 02:54:32;;;;;;;29.92;15.32;;;;;;;11.00;95.56;99923.47;5057245;28;20114;-46
2023/09/12 02:56:58;;;;;;;33.88;16.40;;;;;;;10.99;95.46;99915.75;5056684;28;20039;-44
2023/09/12 02:59:24;;;;;;;32.35;16.00;;;;;;;10.98;95.56;99916.63;5065214;28;20036;-48
2023/09/12 03:01:50;;;;;;;33.42;15.93;;;;;;;10.97;95.60;99923.59;5075892;28;20048;-48
2023/09/12 03:04:16;;;;;;;34.10;16.48;;;;;;;10.96;95.40;99916.66;5068469;28;20094;-49
2023/09/12 03:06:42;;;;;;;34.38;15.98;;;;;;;10.68;96.00;99869.03;5064549;28;20071;-48
2023/09/12 03:09:08;;;;;;;35.83;17.17;;;;;;;10.97;95.77;99922.72;5067100;28;20040;-46
2023/09/12 03:11:33;;;;;;;35.58;16.70;;;;;;;10.98;95.47;99927.03;5054094;28;20048;-45
2023/09/12 03:14:00;;;;;;;36.63;17.05;;;;;;;11.00;95.72;99931.28;5047638;28;20425;-49
2023/09/12 03:16:26;;;;;;;36.47;16.88;;;;;;;10.73;95.33;99881.91;5072199;28;20036;-45
2023/09/12 03:18:51;;;;;;;39.95;16.70;;;;;;;10.99;95.54;99928.75;5069395;28;21188;-48
2023/09/12 03:21:17;;;;;;;36.33;16.02;;;;;;;11.01;95.25;99926.94;5071607;28;20512;-46
2023/09/12 03:23:43;;;;;;;35.53;15.55;;;;;;;11.00;95.78;99928.66;5068740;28;20041;-47
2023/09/12 03:26:09;;;;;;;38.35;16.92;;;;;;;10.99;95.21;99933.94;5070071;28;20040;-44
2023/09/12 03:28:36;;;;;;;37.90;16.52;;;;;;;10.77;95.32;99891.31;5063321;28;20037;-46
2023/09/12 03:31:13;;;;;;;35.80;16.77;;;;;;;11.00;95.56;99933.03;5064655;28;20047;-47
2023/09/12 03:33:41;;;;;;;34.03;16.38;;;;;;;11.03;95.42;99932.94;5059128;28;20116;-46
2023/09/12 03:36:08;;;;;;;32.15;15.73;;;;;;;11.04;95.24;99929.44;5065569;28;20051;-46
2023/09/12 03:38:34;;;;;;;37.20;16.65;;;;;;;11.05;95.45;99928.53;5071493;28;20040;-48
2023/09/12 03:41:01;;;;;;;40.80;17.15;;;;;;;11.06;94.50;99935.44;5075956;28;20283;-47
2023/09/12 03:43:28;;;;;;;34.20;16.02;;;;;;;10.73;94.94;99874.09;5073038;28;20044;-47
2023/09/12 03:45:54;;;;;;;38.05;16.27;;;;;;;11.15;94.83;99939.50;5086030;28;20075;-48
2023/09/12 03:48:21;;;;;;;40.63;17.48;;;;;;;11.14;94.91;99937.81;5077796;28;20051;-47
2023/09/12 03:50:47;;;;;;;35.80;16.50;;;;;;;11.20;94.15;99933.22;5065694;28;20058;-51
2023/09/12 03:53:14;;;;;;;34.70;16.98;;;;;;;11.04;94.54;99900.81;5075235;28;20036;-47
2023/09/12 03:55:40;;;;;;;32.85;16.15;;;;;;;11.25;94.11;99931.31;5078239;28;20047;-48
2023/09/12 03:58:06;;;;;;;34.97;16.13;;;;;;;11.29;94.33;99932.09;5074276;28;20044;-51
2023/09/12 04:00:32;;;;;;;33.25;16.58;;;;;;;11.31;94.21;99931.13;5072951;28;20640;-45
2023/09/12 04:02:58;;;;;;;34.70;16.70;;;;;;;11.17;94.10;99904.72;5073531;28;20089;-45
2023/09/12 04:05:25;;;;;;;36.55;17.33;;;;;;;11.40;93.58;99940.41;5059195;28;20077;-48
2023/09/12 04:07:51;;;;;;;37.50;17.08;;;;;;;11.43;93.89;99933.31;5068206;28;20040;-45
2023/09/12 04:10:18;;;;;;;33.03;16.88;;;;;;;11.51;93.69;99937.44;5074043;28;20043;-48
2023/09/12 04:12:45;;;;;;;35.97;18.35;;;;;;;11.54;92.90;99940.78;5076695;28;20124;-47
2023/09/12 04:15:11;;;;;;;32.28;16.73;;;;;;;11.44;92.91;99910.75;5049606;28;20538;-47
2023/09/12 04:17:36;;;;;;;34.47;16.58;;;;;;;11.63;92.37;99937.84;5073072;28;20032;-46
2023/09/12 04:20:04;;;;;;;34.63;17.25;;;;;;;11.72;92.78;99952.31;5073110;28;20063;-44
2023/09/12 04:22:30;;;;;;;34.70;16.15;;;;;;;11.60;92.44;99929.28;5083397;28;20048;-48
2023/09/12 04:24:56;;;;;;;34.50;16.52;;;;;;;11.65;91.70;99930.84;5068263;28;20527;-49
2023/09/12 04:27:22;;;;;;;35.28;17.45;;;;;;;11.89;91.71;99960.41;5074809;28;20040;-52
2023/09/12 04:29:48;;;;;;;38.25;16.98;;;;;;;11.94;91.18;99960.25;5068030;28;20530;-47
2023/09/12 04:32:16;;;;;;;33.97;15.68;;;;;;;12.04;90.21;99959.00;5071966;28;20048;-49
2023/09/12 04:34:45;;;;;;;42.13;16.67;;;;;;;12.08;89.46;99950.19;5076763;28;20066;-48
2023/09/12 04:37:11;;;;;;;31.20;15.88;;;;;;;11.91;88.76;99916.94;5070231;28;20471;-51
2023/09/12 04:39:37;;;;;;;28.60;15.15;;;;;;;12.17;88.86;99945.50;5076165;28;20077;-47
2023/09/12 04:42:04;;;;;;;33.90;15.90;;;;;;;12.25;88.19;99955.63;5058908;28;20500;-48
2023/09/12 04:44:35;;;;;;;36.72;16.42;;;;;;;12.30;87.41;99964.97;5070146;28;20044;-50
2023/09/12 04:47:02;;;;;;;35.17;15.07;;;;;;;12.38;86.99;99963.84;5074529;28;20093;-47
2023/09/12 04:49:28;;;;;;;28.88;14.52;;;;;;;12.30;86.67;99938.06;5072550;28;20040;-49
2023/09/12 04:51:54;;;;;;;28.27;15.35;;;;;;;12.49;85.44;99961.69;5072335;28;20063;-50
2023/09/12 04:54:20;;;;;;;35.25;15.43;;;;;;;12.57;85.27;99967.47;5074609;28;20521;-47
2023/09/12 04:56:47;;;;;;;30.95;15.52;;;;;;;12.65;85.08;99963.69;5073583;28;20627;-49
2023/09/12 04:59:13;;;;;;;32.65;15.18;;;;;;;12.78;84.93;99966.63;5072763;28;20602;-51
2023/09/12 05:01:38;;;;;;;27.40;14.98;;;;;;;12.88;84.13;99967.13;5068762;28;20047;-48
2023/09/12 05:04:04;;;;;;;32.50;15.85;;;;;;;12.99;83.97;99965.81;5069048;28;20918;-50
2023/09/12 05:06:30;;;;;;;29.63;16.20;;;;;;;13.09;83.58;99961.91;5059067;28;20051;-49
2023/09/12 05:08:56;;;;;;;31.00;15.00;;;;;;;13.05;83.15;99931.63;5073610;28;20130;-51
2023/09/12 05:11:23;;;;;;;28.65;15.10;;;;;;;13.31;82.54;99951.50;5041822;28;20027;-49
2023/09/12 05:13:50;;;;;;;32.47;15.25;;;;;;;13.42;81.95;99962.34;5042201;28;20032;-45
2023/09/12 05:16:15;;;;;;;28.92;15.52;;;;;;;13.38;81.16;99936.41;5044224;28;20045;-48
2023/09/12 05:18:41;;;;;;;28.52;15.10;;;;;;;13.66;80.44;99957.03;5054148;28;20059;-51
2023/09/12 05:21:07;;;;;;;27.77;14.40;;;;;;;13.56;79.89;99925.19;5072220;28;20044;-48
2023/09/12 05:23:33;;;;;;;30.85;15.38;;;;;;;13.90;79.54;99969.88;5076330;28;20048;-49
2023/09/12 05:25:59;;;;;;;29.42;15.07;;;;;;;14.03;78.76;99972.78;5037787;28;20064;-51
2023/09/12 05:28:25;;;;;;;32.05;14.35;;;;;;;14.13;78.24;99973.25;5040117;28;20094;-46
2023/09/12 05:30:52;;;;;;;26.85;14.55;;;;;;;14.24;77.82;99978.81;5068568;28;20070;-48
2023/09/12 05:33:18;;;;;;;29.45;15.25;;;;;;;14.22;77.29;99960.63;5071643;28;20032;-48
2023/09/12 05:35:44;;;;;;;30.42;15.57;;;;;;;14.46;76.29;99978.75;5075276;28;20768;-48
2023/09/12 05:38:10;;;;;;;29.13;15.40;;;;;;;14.61;75.91;99985.91;5065811;28;20063;-48
2023/09/12 05:40:36;;;;;;;32.88;16.80;;;;;;;14.77;75.25;99984.28;5070966;28;20761;-49
2023/09/12 05:43:02;;;;;;;28.90;15.68;;;;;;;14.99;74.16;99987.59;5071877;28;20079;-48
2023/09/12 05:45:32;;;;;;;30.55;15.55;;;;;;;15.17;73.81;99980.63;5058424;28;20459;-48
2023/09/12 05:47:59;;;;;;;29.58;15.75;;;;;;;15.40;72.97;99992.59;5065078;28;20044;-48
2023/09/12 05:50:26;;;;;;;31.23;15.82;;;;;;;15.72;72.04;99985.78;5058436;28;20131;-49
2023/09/12 05:52:52;;;;;;;33.33;16.92;;;;;;;16.20;70.07;99985.03;5073701;28;20127;-47
2023/09/12 05:55:18;;;;;;;34.58;15.07;;;;;;;16.74;68.24;99984.75;5072583;28;20040;-52
2023/09/12 05:57:45;;;;;;;27.55;15.10;;;;;;;17.38;66.00;99986.38;5069063;28;20423;-49
2023/09/12 06:00:12;;;;;;;28.23;15.35;;;;;;;18.13;64.04;99988.94;5072756;28;20032;-50
2023/09/12 06:02:42;;;;;;;30.15;15.48;;;;;;;18.81;62.19;99962.78;5058869;28;20500;-50
2023/09/12 06:05:08;;;;;;;31.73;15.63;;;;;;;19.69;60.15;99995.69;5073918;28;20491;-50
2023/09/12 06:07:35;;;;;;;23.05;14.77;;;;;;;20.43;58.23;99995.88;5059133;28;20040;-47
2023/09/12 06:10:01;;;;;;;27.80;14.95;;;;;;;21.20;56.18;99989.47;5074332;28;20138;-49
2023/09/12 06:12:32;;;;;;;;;;;;;;;21.97;54.06;99996.06;5076027;28;20037;-49
2023/09/12 06:14:59;;;;;;;26.30;14.73;;;;;;;22.60;52.61;99995.50;5076841;28;20010;-51
2023/09/12 06:17:25;;;;;;;25.80;15.57;;;;;;;23.11;50.50;100003.75;5066090;28;20044;-49
2023/09/12 06:19:51;;;;;;;28.75;16.33;;;;;;;23.81;48.26;100003.31;5076577;28;20097;-48
2023/09/12 06:22:18;;;;;;;29.17;16.27;;;;;;;24.36;46.12;99988.81;5078548;28;20041;-47
2023/09/12 06:24:44;;;;;;;28.80;16.63;;;;;;;24.94;44.30;100013.00;5077000;28;20036;-48
2023/09/12 06:27:12;;;;;;;30.33;16.65;;;;;;;25.31;42.94;99979.44;5075471;28;20044;-51
2023/09/12 06:29:38;;;;;;;29.48;17.63;;;;;;;25.79;41.97;99983.09;5079635;28;20048;-48
2023/09/12 06:32:04;;;;;;;31.02;19.40;;;;;;;26.34;40.63;100005.44;5070650;28;20373;-51
2023/09/12 06:34:30;;;;;;;26.67;16.85;;;;;;;26.81;39.27;100004.41;5057161;28;20081;-50
2023/09/12 06:36:56;;;;;;;29.10;17.92;;;;;;;27.19;38.68;100000.69;5057355;28;20041;-47
2023/09/12 06:39:24;;;;;;;27.25;16.80;;;;;;;27.64;37.81;100010.50;5078894;28;20046;-48
2023/09/12 06:41:50;;;;;;;26.38;16.75;;;;;;;28.23;36.79;100002.63;5074736;28;20482;-47
2023/09/12 06:44:15;;;;;;;26.08;17.45;;;;;;;28.89;35.52;100007.31;5064049;28;20056;-49
2023/09/12 06:46:41;;;;;;;25.15;18.63;;;;;;;28.92;34.81;100008.84;5078697;28;20044;-49
2023/09/12 06:49:07;;;;;;;29.95;19.17;;;;;;;28.88;34.31;99994.97;5075880;28;20661;-51
2023/09/12 06:51:33;;;;;;;26.38;19.25;;;;;;;29.08;33.74;100003.56;5079573;28;20976;-52
2023/09/12 06:53:59;;;;;;;28.08;19.58;;;;;;;29.71;33.22;99997.63;5055363;28;20032;-51
2023/09/12 06:56:25;;;;;;;28.55;19.60;;;;;;;30.14;31.97;100001.81;5059365;28;20042;-50
2023/09/12 06:58:53;;;;;;;29.35;19.25;;;;;;;30.81;31.38;100005.00;5078131;28;20043;-51
2023/09/12 07:01:19;;;;;;;22.63;18.23;;;;;;;31.56;30.38;100011.47;5076971;28;20059;-51
2023/09/12 07:03:44;;;;;;;27.90;19.23;;;;;;;31.50;29.64;99977.25;5070685;28;20036;-56
2023/09/12 07:06:10;;;;;;;28.48;20.42;;;;;;;32.17;29.14;100015.88;5073953;28;20060;-48
2023/09/12 07:08:36;;;;;;;32.42;21.48;;;;;;;32.70;28.42;100017.50;5084884;28;20039;-48
2023/09/12 07:11:05;;;;;;;29.35;21.02;;;;;;;32.78;27.85;100019.22;5060729;28;20408;-50
2023/09/12 07:13:32;;;;;;;31.00;21.10;;;;;;;32.98;27.78;100019.47;5066842;28;20036;-50
2023/09/12 07:15:58;;;;;;;30.10;19.73;;;;;;;33.67;27.14;100014.44;5057659;28;20538;-50
2023/09/12 07:18:24;;;;;;;31.75;20.17;;;;;;;34.22;26.47;100011.03;5082254;28;20253;-49
2023/09/12 07:20:58;;;;;;;26.98;20.15;;;;;;;34.69;25.82;100013.00;5053337;28;20082;-50
2023/09/12 07:23:24;;;;;;;23.88;19.42;;;;;;;34.95;25.39;100009.56;5073445;28;20105;-53
2023/09/12 07:25:50;;;;;;;24.48;19.73;;;;;;;34.91;24.92;100001.03;5068184;28;20043;-52
2023/09/12 07:28:18;;;;;;;24.63;20.15;;;;;;;35.28;24.15;100015.91;5052943;28;20113;-50
2023/09/12 07:30:46;;;;;;;28.83;20.08;;;;;;;35.27;24.31;99992.66;5072197;28;20040;-47
2023/09/12 07:33:12;;;;;;;23.98;18.80;;;;;;;35.13;24.45;100009.81;5018574;28;20044;-48
2023/09/12 07:35:38;;;;;;;24.20;19.88;;;;;;;34.58;24.88;100002.72;5061055;28;20036;-52
2023/09/12 07:38:04;;;;;;;25.63;20.45;;;;;;;34.33;25.06;99987.00;5078496;28;20392;-50
2023/09/12 07:40:30;;;;;;;29.10;19.92;;;;;;;34.89;24.85;100005.81;5075223;28;20047;-49
2023/09/12 07:42:56;;;;;;;23.38;19.23;;;;;;;34.79;24.94;100006.19;5045659;28;20105;-48
2023/09/12 07:45:22;;;;;;;24.20;19.10;;;;;;;34.03;25.43;99996.31;5070462;28;20044;-48
2023/09/12 07:47:48;;;;;;;26.20;21.95;;;;;;;33.32;25.88;99965.78;5072324;28;20622;-48
2023/09/12 07:50:14;;;;;;;27.13;21.20;;;;;;;33.24;26.11;100003.63;5043687;28;20047;-49
2023/09/12 07:52:40;;;;;;;28.67;20.88;;;;;;;33.25;26.35;100008.00;5078285;28;20083;-50
2023/09/12 07:55:07;;;;;;;32.55;20.48;;;;;;;33.49;25.99;99978.00;5067989;28;20036;-48
2023/09/12 07:57:34;;;;;;;23.15;18.75;;;;;;;33.66;26.00;99997.41;5040601;28;20048;-51
2023/09/12 08:00:01;;;;;;;24.27;18.75;;;;;;;33.37;26.33;99984.09;5037873;28;20185;-49
2023/09/12 08:02:29;;;;;;;23.92;19.35;;;;;;;33.52;26.17;100006.41;5065568;28;20634;-53
2023/09/12 08:04:54;;;;;;;25.60;19.10;;;;;;;33.20;26.12;99986.19;5070492;28;20108;-48
2023/09/12 08:07:20;;;;;;;25.90;19.35;;;;;;;32.57;26.85;100003.81;5071486;28;20039;-51
2023/09/12 08:09:54;;;;;;;24.30;18.42;;;;;;;32.12;27.33;99999.44;5072437;28;20525;-51
2023/09/12 08:12:22;;;;;;;24.30;18.33;;;;;;;32.02;27.45;100003.38;5073244;28;20048;-50
2023/09/12 08:14:48;;;;;;;26.75;18.77;;;;;;;32.76;26.68;100002.44;5067048;28;20124;-52
2023/09/12 08:17:15;;;;;;;22.17;17.05;;;;;;;32.29;26.40;100014.38;5064623;28;20041;-51
2023/09/12 08:19:41;;;;;;;23.92;17.55;;;;;;;30.86;27.75;99981.97;5051006;28;20492;-53
2023/09/12 08:22:08;;;;;;;24.25;19.15;;;;;;;31.15;27.86;100000.13;5075278;28;20131;-55
2023/09/12 08:24:34;;;;;;;26.50;18.00;;;;;;;31.65;27.35;99993.44;5080693;28;20161;-51
2023/09/12 08:27:01;;;;;;;23.80;17.73;;;;;;;32.57;26.66;99970.66;5061976;28;20095;-50
2023/09/12 08:29:31;;;;;;;24.40;17.77;;;;;;;33.64;25.68;99991.41;5076816;28;20036;-50
2023/09/12 08:31:57;;;;;;;26.25;16.50;;;;;;;34.35;24.80;99994.88;5079869;28;20586;-49
2023/09/12 08:34:23;;;;;;;28.42;15.82;;;;;;;34.49;23.97;99998.53;5074513;28;20039;-49
2023/09/12 08:36:49;;;;;;;21.25;16.98;;;;;;;34.99;23.36;99991.91;5059043;28;20137;-54
2023/09/12 08:39:16;;;;;;;22.77;17.45;;;;;;;35.72;22.50;99990.22;5057283;28;20505;-53
2023/09/12 08:41:43;;;;;;;24.10;17.65;;;;;;;36.25;22.05;99994.59;5076133;28;20130;-53
2023/09/12 08:44:09;;;;;;;20.77;16.77;;;;;;;36.60;21.50;99994.28;5072116;28;20036;-51
2023/09/12 08:46:36;;;;;;;22.05;16.42;;;;;;;37.26;21.12;99986.75;5066627;28;20214;-53
2023/09/12 08:49:03;;;;;;;;;;;;;;;37.73;20.57;99990.81;5064967;28;20094;-53
2023/09/12 08:51:29;;;;;;;18.92;16.75;;;;;;;37.15;20.53;99984.72;5072426;28;20359;-49
2023/09/12 08:53:54;;;;;;;25.30;16.45;;;;;;;37.64;20.36;99992.94;5069950;28;20060;-52
2023/09/12 08:56:20;;;;;;;19.05;15.75;;;;;;;38.08;19.66;99988.44;5066958;28;20049;-50
2023/09/12 08:58:47;;;;;;;22.17;15.77;;;;;;;38.05;19.51;99978.81;5073766;28;20043;-48
2023/09/12 09:01:14;;;;;;;21.87;15.47;;;;;;;38.39;19.34;99980.16;5073571;28;20511;-53
2023/09/12 09:03:41;;;;;;;18.30;13.93;;;;;;;38.63;19.28;99986.59;5069196;28;20064;-54
2023/09/12 09:06:09;;;;;;;18.98;14.70;;;;;;;37.51;19.39;99956.91;5055818;28;20151;-51
2023/09/12 09:08:35;;;;;;;18.27;14.32;;;;;;;37.53;19.78;99976.53;5077059;28;20042;-53
2023/09/12 09:11:06;;;;;;;21.02;14.60;;;;;;;37.21;19.71;99979.25;5075585;28;20042;-52
2023/09/12 09:13:33;;;;;;;19.45;13.85;;;;;;;35.61;20.92;99976.25;5071955;28;20640;-53
2023/09/12 09:16:15;;;;;;;19.65;13.70;;;;;;;35.74;21.24;99975.47;5073550;28;20067;-52
2023/09/12 09:18:57;;;;;;;18.35;13.10;;;;;;;36.50;20.53;99975.75;5065982;28;20056;-52
2023/09/12 09:21:26;;;;;;;19.92;13.38;;;;;;;36.74;19.71;99972.38;5058461;28;20047;-49
2023/09/12 09:23:53;;;;;;;18.23;13.10;;;;;;;35.88;20.18;99969.00;5069493;28;20547;-53
2023/09/12 09:26:20;;;;;;;20.45;13.02;;;;;;;34.96;21.00;99955.31;5073788;28;20044;-54
2023/09/12 09:29:03;;;;;;;19.90;14.05;;;;;;;34.82;21.68;99964.41;5069149;28;20037;-51
2023/09/12 09:31:28;;;;;;;17.63;13.77;;;;;;;36.21;20.76;99955.44;5075190;28;20491;-51
2023/09/12 09:33:55;;;;;;;22.33;14.93;;;;;;;36.83;20.21;99962.94;5053133;28;20059;-56
2023/09/12 09:36:21;;;;;;;20.15;13.90;;;;;;;37.80;19.09;99966.28;5074453;28;20101;-52
2023/09/12 09:38:47;;;;;;;16.70;12.48;;;;;;;38.10;18.87;99951.03;5057916;28;20036;-52
2023/09/12 09:41:13;;;;;;;18.13;12.65;;;;;;;39.24;18.15;99963.84;5073657;28;20040;-52
2023/09/12 09:43:38;;;;;;;18.33;13.20;;;;;;;39.28;17.47;99935.09;5061853;28;20039;-48
2023/09/12 09:46:04;;;;;;;17.75;12.00;;;;;;;39.36;17.27;99975.63;5074626;28;20134;-51
2023/09/12 09:48:31;;;;;;;17.50;11.80;;;;;;;39.10;17.41;99962.38;5072237;28;20515;-56
2023/09/12 09:51:02;;;;;;;17.23;11.35;;;;;;;39.35;17.37;99973.97;5053653;28;20053;-49
2023/09/12 09:53:29;;;;;;;15.95;12.02;;;;;;;39.57;17.13;99966.09;5071685;28;20807;-49
2023/09/12 09:56:13;;;;;;;14.88;12.18;;;;;;;40.04;16.31;99972.41;5071765;28;20037;-52
2023/09/12 09:58:53;;;;;;;15.05;11.25;;;;;;;39.91;16.95;99970.75;5065348;28;20041;-49
2023/09/12 10:01:21;;;;;;;15.80;11.15;;;;;;;40.56;16.45;99948.78;5070508;28;20041;-50
2023/09/12 10:03:49;;;;;;;15.00;11.38;;;;;;;41.04;15.69;99971.03;5066965;28;20036;-53
2023/09/12 10:06:19;;;;;;;14.30;12.68;;;;;;;40.04;16.60;99965.03;5056726;28;20588;-50
2023/09/12 10:08:52;;;;;;;17.00;11.45;;;;;;;40.14;16.58;99962.56;5071843;28;20044;-53
2023/09/12 10:11:18;;;;;;;16.80;11.95;;;;;;;40.75;16.28;99942.09;5050887;28;20112;-53
2023/09/12 10:13:48;;;;;;;16.02;11.70;;;;;;;41.40;16.10;99968.97;5075126;28;20665;-52
2023/09/12 10:16:16;;;;;;;20.90;12.35;;;;;;;41.36;15.77;99954.97;5073287;28;20066;-52
2023/09/12 10:19:10;;;;;;;16.55;11.55;;;;;;;42.03;15.20;99962.38;5047228;28;20120;-51
2023/09/12 10:21:38;;;;;;;14.88;12.73;;;;;;;41.81;15.95;99960.41;5059206;28;20135;-49
2023/09/12 10:24:04;;;;;;;14.98;12.10;;;;;;;42.40;15.62;99957.97;5074400;28;20043;-58
2023/09/12 10:26:31;;;;;;;14.73;11.63;;;;;;;41.81;14.84;99954.94;5070764;28;20052;-52
2023/09/12 10:28:57;;;;;;;14.93;11.48;;;;;;;41.26;15.74;99935.69;5052106;28;20610;-52
2023/09/12 10:31:26;;;;;;;14.75;12.35;;;;;;;41.61;15.25;99921.84;5050236;28;20044;-51
2023/09/12 10:33:53;;;;;;;24.08;12.48;;;;;;;42.51;15.04;99967.97;5070761;28;20036;-53
2023/09/12 10:36:20;;;;;;;15.65;13.00;;;;;;;43.01;14.75;99962.31;5074012;28;20048;-53
2023/09/12 10:38:48;;;;;;;16.65;11.77;;;;;;;43.41;14.44;99964.63;5032260;28;20039;-54
2023/09/12 10:41:15;;;;;;;17.55;12.10;;;;;;;43.81;14.15;99964.13;5070138;28;20049;-51
2023/09/12 10:43:45;;;;;;;19.17;12.60;;;;;;;43.80;14.22;99958.94;5075542;28;20036;-52
2023/09/12 10:46:11;;;;;;;19.73;11.35;;;;;;;43.57;14.31;99949.16;5072112;28;20040;-51
2023/09/12 10:48:39;;;;;;;17.88;10.77;;;;;;;43.79;14.29;99955.38;5075459;28;20042;-54
2023/09/12 10:51:07;;;;;;;12.25;10.95;;;;;;;43.84;14.08;99957.31;5077406;28;20126;-51
2023/09/12 10:53:36;;;;;;;17.55;11.25;;;;;;;43.49;14.10;99958.72;5075880;28;20035;-51
2023/09/12 10:56:08;;;;;;;15.75;10.73;;;;;;;42.80;14.32;99948.66;5022934;28;20139;-52
2023/09/12 10:59:12;;;;;;;10.60;9.50;;;;;;;42.35;14.74;99949.72;5071235;28;20046;-54
2023/09/12 11:01:40;;;;;;;15.80;10.27;;;;;;;40.02;15.23;99939.13;5069383;28;20059;-49
2023/09/12 11:04:18;;;;;;;13.40;10.27;;;;;;;39.04;16.36;99930.66;5063536;28;20051;-50
2023/09/12 11:06:47;;;;;;;13.50;9.82;;;;;;;38.63;16.70;99929.50;5073741;28;20140;-50
2023/09/12 11:09:26;;;;;;;11.52;9.75;;;;;;;38.54;16.53;99923.56;5067753;28;20104;-52
2023/09/12 11:11:54;;;;;;;13.20;9.10;;;;;;;38.50;16.51;99925.09;5072145;28;20040;-49
2023/09/12 11:14:20;;;;;;;10.50;9.30;;;;;;;38.81;16.17;99929.47;5070656;28;20451;-50
2023/09/12 11:17:08;;;;;;;11.93;8.57;;;;;;;38.71;16.75;99923.75;5076048;28;20048;-52
2023/09/12 11:19:51;;;;;;;11.63;8.65;;;;;;;38.46;16.19;99915.72;5059009;28;20035;-52